Time;durP1;ratioP1;P1;durP2;ratioP2;P2;SDS_P1;SDS_P2;PMS_P1;PMS_P2;Temp;Humidity;BMP_temperature;BMP_pressure;BME280_temperature;BME280_humidity;BME280_pressure;Samples;Min_cycle;Max_cycle;Signal;HPM_P1;HPM_P2
2021/09/29 00:01:56;;;;;;;18.23;13.40;;;;;;;;;;4863327;28;20488;-67
2021/09/29 00:04:22;;;;;;;21.73;13.80;;;;;;;;;;4866812;28;20855;-65
2021/09/29 00:06:47;;;;;;;18.90;14.05;;;;;;;;;;4865752;28;20038;-67
2021/09/29 00:09:13;;;;;;;23.33;15.95;;;;;;;;;;4865000;28;20136;-67
2021/09/29 00:11:38;;;;;;;22.98;15.65;;;;;;;;;;4867486;28;20049;-66
2021/09/29 00:14:03;;;;;;;22.17;14.52;;;;;;;;;;4864089;28;20966;-64
2021/09/29 00:16:28;;;;;;;28.17;17.27;;;;;;;;;;4866507;28;20312;-63
2021/09/29 00:18:54;;;;;;;26.87;17.87;;;;;;;;;;4867986;28;21140;-62
2021/09/29 00:21:19;;;;;;;29.37;19.07;;;;;;;;;;4867430;28;20301;-63
2021/09/29 00:23:44;;;;;;;33.55;18.83;;;;;;;;;;4869232;28;20276;-62
2021/09/29 00:26:10;;;;;;;27.10;17.65;;;;;;;;;;4867859;28;20365;-60
2021/09/29 00:28:35;;;;;;;24.83;16.75;;;;;;;;;;4865127;28;20885;-62
2021/09/29 00:31:16;;;;;;;24.23;17.45;;;;;;;;;;4862413;28;20361;-61
2021/09/29 00:33:46;;;;;;;25.67;17.40;;;;;;;;;;4863609;28;20042;-61
2021/09/29 00:36:11;;;;;;;26.40;17.80;;;;;;;;;;4864540;28;20040;-61
2021/09/29 00:38:37;;;;;;;29.35;18.33;;;;;;;;;;4868710;28;21544;-61
2021/09/29 00:41:02;;;;;;;29.42;20.33;;;;;;;;;;4863564;28;20040;-67
2021/09/29 00:43:27;;;;;;;27.48;17.95;;;;;;;;;;4862748;28;20030;-65
2021/09/29 00:45:53;;;;;;;28.65;18.15;;;;;;;;;;4869041;28;20026;-65
2021/09/29 00:48:18;;;;;;;26.10;17.63;;;;;;;;;;4864981;28;20040;-64
2021/09/29 00:50:44;;;;;;;26.02;17.65;;;;;;;;;;4864381;28;20061;-65
2021/09/29 00:53:09;;;;;;;24.25;16.20;;;;;;;;;;4863181;28;20029;-65
2021/09/29 00:55:35;;;;;;;22.13;14.73;;;;;;;;;;4863448;28;20412;-66
2021/09/29 00:58:00;;;;;;;22.27;16.00;;;;;;;;;;4868836;28;20567;-66
2021/09/29 01:00:25;;;;;;;23.70;15.87;;;;;;;;;;4868351;28;20355;-66
2021/09/29 01:02:51;;;;;;;22.60;15.00;;;;;;;;;;4868251;28;20272;-65
2021/09/29 01:05:16;;;;;;;23.58;14.88;;;;;;;;;;4866616;28;20468;-63
2021/09/29 01:08:00;;;;;;;25.52;15.98;;;;;;;;;;4868030;28;20028;-66
2021/09/29 01:10:26;;;;;;;26.65;16.23;;;;;;;;;;4867524;28;20036;-67
2021/09/29 01:13:00;;;;;;;22.27;15.97;;;;;;;;;;4864969;28;20148;-65
2021/09/29 01:15:27;;;;;;;19.65;14.05;;;;;;;;;;4868570;28;20459;-66
2021/09/29 01:17:54;;;;;;;22.13;14.30;;;;;;;;;;4867376;28;20029;-66
2021/09/29 01:20:31;;;;;;;19.77;13.50;;;;;;;;;;4882884;28;20057;-66
2021/09/29 01:23:14;;;;;;;20.15;14.10;;;;;;;;;;4864456;28;20069;-66
2021/09/29 01:26:06;;;;;;;27.42;14.88;;;;;;;;;;4863110;28;20386;-66
2021/09/29 01:28:37;;;;;;;20.95;13.90;;;;;;;;;;4877190;28;20057;-65
2021/09/29 01:31:02;;;;;;;21.10;14.82;;;;;;;;;;4866836;28;24176;-63
2021/09/29 01:33:29;;;;;;;22.40;14.85;;;;;;;;;;4868334;28;20040;-66
2021/09/29 01:35:55;;;;;;;20.33;14.80;;;;;;;;;;4869197;28;20124;-65
2021/09/29 01:38:20;;;;;;;22.40;14.95;;;;;;;;;;4866202;28;20594;-66
2021/09/29 01:40:45;;;;;;;20.30;14.77;;;;;;;;;;4871046;28;20062;-65
2021/09/29 01:43:11;;;;;;;19.60;14.10;;;;;;;;;;4867288;28;20025;-66
2021/09/29 01:45:36;;;;;;;20.25;14.43;;;;;;;;;;4868824;28;20439;-64
2021/09/29 01:48:01;;;;;;;19.10;13.15;;;;;;;;;;4867881;28;20022;-65
2021/09/29 01:50:28;;;;;;;19.85;13.90;;;;;;;;;;4871259;28;20108;-67
2021/09/29 01:52:56;;;;;;;19.35;13.57;;;;;;;;;;4863969;28;20487;-65
2021/09/29 01:55:22;;;;;;;19.25;13.95;;;;;;;;;;4884587;28;20762;-65
2021/09/29 01:57:47;;;;;;;21.75;13.95;;;;;;;;;;4866719;28;20093;-63
2021/09/29 02:00:13;;;;;;;20.90;14.25;;;;;;;;;;4870881;28;20107;-64
2021/09/29 02:02:42;;;;;;;20.27;13.98;;;;;;;;;;4864361;28;20072;-65
2021/09/29 02:05:07;;;;;;;21.60;14.57;;;;;;;;;;4867664;28;20076;-65
2021/09/29 02:07:33;;;;;;;18.40;13.95;;;;;;;;;;4867113;28;20409;-66
2021/09/29 02:09:58;;;;;;;17.90;13.55;;;;;;;;;;4880737;28;20049;-66
2021/09/29 02:12:24;;;;;;;21.75;14.52;;;;;;;;;;4870170;28;20579;-68
2021/09/29 02:14:49;;;;;;;21.95;15.63;;;;;;;;;;4869042;28;24629;-67
2021/09/29 02:17:17;;;;;;;22.67;16.43;;;;;;;;;;4869570;28;20850;-66
2021/09/29 02:19:42;;;;;;;23.65;14.13;;;;;;;;;;4869317;28;20368;-67
2021/09/29 02:22:08;;;;;;;20.80;14.30;;;;;;;;;;4862517;28;20115;-69
2021/09/29 02:24:33;;;;;;;21.08;15.07;;;;;;;;;;4870104;28;20022;-67
2021/09/29 02:26:58;;;;;;;23.42;13.57;;;;;;;;;;4871049;28;20033;-67
2021/09/29 02:29:24;;;;;;;22.10;13.93;;;;;;;;;;4872364;28;20897;-65
2021/09/29 02:31:50;;;;;;;22.40;15.48;;;;;;;;;;4865645;28;20044;-70
2021/09/29 02:34:15;;;;;;;22.38;14.30;;;;;;;;;;4869907;28;20818;-70
2021/09/29 02:36:40;;;;;;;22.42;14.05;;;;;;;;;;4869867;28;20060;-71
2021/09/29 02:39:05;;;;;;;21.57;13.93;;;;;;;;;;4874801;28;20883;-68
2021/09/29 02:41:31;;;;;;;21.42;13.48;;;;;;;;;;4866115;28;20699;-67
2021/09/29 02:43:56;;;;;;;19.75;14.18;;;;;;;;;;4867106;28;20041;-66
2021/09/29 02:46:21;;;;;;;21.17;14.80;;;;;;;;;;4871932;28;20029;-65
2021/09/29 02:48:47;;;;;;;19.20;14.17;;;;;;;;;;4870722;28;20288;-64
2021/09/29 02:51:12;;;;;;;22.07;14.10;;;;;;;;;;4874281;28;21453;-64
2021/09/29 02:53:37;;;;;;;20.85;14.60;;;;;;;;;;4868626;28;20392;-66
2021/09/29 02:56:03;;;;;;;22.17;15.15;;;;;;;;;;4870618;28;20057;-64
2021/09/29 02:58:29;;;;;;;22.80;15.48;;;;;;;;;;4871362;28;20671;-63
2021/09/29 03:00:55;;;;;;;22.15;15.38;;;;;;;;;;4872825;28;20053;-64
2021/09/29 03:03:20;;;;;;;24.27;14.10;;;;;;;;;;4871234;28;20624;-63
2021/09/29 03:05:46;;;;;;;21.95;15.20;;;;;;;;;;4868599;28;20022;-64
2021/09/29 03:08:11;;;;;;;22.35;14.68;;;;;;;;;;4870992;28;20656;-65
2021/09/29 03:10:38;;;;;;;20.80;14.55;;;;;;;;;;4870674;28;20145;-65
2021/09/29 03:13:07;;;;;;;19.58;14.65;;;;;;;;;;4869371;28;23625;-65
2021/09/29 03:15:33;;;;;;;20.52;15.27;;;;;;;;;;4871643;28;20029;-67
2021/09/29 03:17:58;;;;;;;21.23;14.40;;;;;;;;;;4870031;28;20037;-66
2021/09/29 03:20:25;;;;;;;19.85;14.32;;;;;;;;;;4870220;28;20866;-65
2021/09/29 03:22:51;;;;;;;19.25;14.68;;;;;;;;;;4866219;28;20664;-64
2021/09/29 03:25:16;;;;;;;19.02;13.43;;;;;;;;;;4868882;28;20046;-65
2021/09/29 03:27:42;;;;;;;18.10;13.00;;;;;;;;;;4870002;28;20034;-65
2021/09/29 03:30:07;;;;;;;21.70;14.40;;;;;;;;;;4871073;28;20029;-66
2021/09/29 03:32:32;;;;;;;20.38;13.10;;;;;;;;;;4868724;28;20044;-65
2021/09/29 03:34:58;;;;;;;19.55;13.23;;;;;;;;;;4869258;28;20140;-65
2021/09/29 03:37:23;;;;;;;21.43;13.50;;;;;;;;;;4869259;28;20799;-65
2021/09/29 03:39:49;;;;;;;21.77;15.20;;;;;;;;;;4870837;28;21505;-64
2021/09/29 03:42:14;;;;;;;23.67;15.43;;;;;;;;;;4869951;28;20291;-65
2021/09/29 03:44:40;;;;;;;23.30;14.53;;;;;;;;;;4868172;28;20555;-65
2021/09/29 03:47:05;;;;;;;20.58;14.73;;;;;;;;;;4870376;28;20276;-65
2021/09/29 03:49:30;;;;;;;19.77;13.65;;;;;;;;;;4866078;28;20480;-66
2021/09/29 03:51:56;;;;;;;20.60;13.85;;;;;;;;;;4869563;28;20044;-66
2021/09/29 03:54:21;;;;;;;19.10;13.27;;;;;;;;;;4867030;28;20096;-64
2021/09/29 03:56:46;;;;;;;17.98;13.05;;;;;;;;;;4869007;28;20368;-66
2021/09/29 03:59:12;;;;;;;19.90;13.27;;;;;;;;;;4870827;28;20032;-65
2021/09/29 04:01:38;;;;;;;20.57;14.27;;;;;;;;;;4872023;28;20469;-66
2021/09/29 04:04:03;;;;;;;20.30;13.45;;;;;;;;;;4867177;28;20796;-66
2021/09/29 04:06:28;;;;;;;23.93;14.47;;;;;;;;;;4879740;28;20040;-64
2021/09/29 04:08:55;;;;;;;22.27;14.50;;;;;;;;;;4870019;28;20046;-66
2021/09/29 04:11:20;;;;;;;20.02;15.15;;;;;;;;;;4868726;28;21113;-64
2021/09/29 04:13:46;;;;;;;19.75;13.88;;;;;;;;;;4868817;28;20523;-65
2021/09/29 04:16:11;;;;;;;21.37;14.60;;;;;;;;;;4870513;28;20796;-66
2021/09/29 04:18:37;;;;;;;21.13;15.07;;;;;;;;;;4881849;28;20645;-66
2021/09/29 04:21:02;;;;;;;17.45;12.75;;;;;;;;;;4870063;28;20068;-65
2021/09/29 04:23:28;;;;;;;18.67;13.23;;;;;;;;;;4869942;28;20036;-66
2021/09/29 04:25:53;;;;;;;20.45;13.00;;;;;;;;;;4868712;28;20034;-66
2021/09/29 04:28:19;;;;;;;17.83;12.50;;;;;;;;;;4867747;28;20077;-66
2021/09/29 04:30:45;;;;;;;17.05;12.60;;;;;;;;;;4883902;28;20034;-66
2021/09/29 04:33:11;;;;;;;21.02;12.52;;;;;;;;;;4865344;28;24446;-65
2021/09/29 04:35:38;;;;;;;18.33;13.07;;;;;;;;;;4869488;28;20485;-66
2021/09/29 04:38:03;;;;;;;17.85;12.63;;;;;;;;;;4868178;28;20104;-66
2021/09/29 04:40:29;;;;;;;17.95;12.75;;;;;;;;;;4871591;28;20124;-64
2021/09/29 04:42:54;;;;;;;20.95;13.25;;;;;;;;;;4885604;28;20034;-64
2021/09/29 04:45:19;;;;;;;17.47;12.90;;;;;;;;;;4867857;28;20029;-66
2021/09/29 04:47:45;;;;;;;17.52;12.00;;;;;;;;;;4868446;28;20350;-66
2021/09/29 04:50:10;;;;;;;17.65;12.73;;;;;;;;;;4867652;28;20029;-66
2021/09/29 04:52:35;;;;;;;16.27;12.23;;;;;;;;;;4868328;28;20766;-64
2021/09/29 04:55:01;;;;;;;17.50;11.27;;;;;;;;;;4870915;28;20662;-66
2021/09/29 04:57:28;;;;;;;18.30;11.52;;;;;;;;;;4866603;28;20033;-66
2021/09/29 04:59:54;;;;;;;16.52;11.95;;;;;;;;;;4871334;28;20022;-66
2021/09/29 05:02:19;;;;;;;16.90;11.70;;;;;;;;;;4863709;28;20271;-65
2021/09/29 05:04:44;;;;;;;16.35;11.70;;;;;;;;;;4867840;28;20022;-65
2021/09/29 05:07:20;;;;;;;19.58;12.38;;;;;;;;;;4864479;28;20030;-65
2021/09/29 05:09:46;;;;;;;16.00;11.30;;;;;;;;;;4872605;28;20563;-64
2021/09/29 05:12:25;;;;;;;14.52;10.35;;;;;;;;;;4872548;28;20132;-66
2021/09/29 05:14:51;;;;;;;14.55;10.55;;;;;;;;;;4872016;28;20880;-66
2021/09/29 05:17:16;;;;;;;15.60;10.52;;;;;;;;;;4867892;28;20030;-65
2021/09/29 05:19:41;;;;;;;15.73;10.68;;;;;;;;;;4876894;28;20022;-64
2021/09/29 05:22:07;;;;;;;17.05;10.25;;;;;;;;;;4872510;28;21488;-65
2021/09/29 05:24:33;;;;;;;14.90;10.25;;;;;;;;;;4873889;28;20105;-63
2021/09/29 05:26:58;;;;;;;16.35;10.75;;;;;;;;;;4871763;28;20036;-65
2021/09/29 05:29:25;;;;;;;18.45;11.88;;;;;;;;;;4874433;28;20022;-66
2021/09/29 05:31:50;;;;;;;15.20;9.75;;;;;;;;;;4877241;28;20042;-65
2021/09/29 05:34:16;;;;;;;12.48;9.05;;;;;;;;;;4888387;28;20079;-66
2021/09/29 05:36:45;;;;;;;14.77;8.95;;;;;;;;;;4873381;28;20033;-66
2021/09/29 05:39:10;;;;;;;13.57;9.13;;;;;;;;;;4876072;28;20022;-67
2021/09/29 05:41:36;;;;;;;14.32;9.98;;;;;;;;;;4872921;28;24459;-64
2021/09/29 05:44:01;;;;;;;17.25;9.63;;;;;;;;;;4873913;28;20072;-65
2021/09/29 05:46:29;;;;;;;14.10;10.18;;;;;;;;;;4863733;28;20041;-67
2021/09/29 05:48:54;;;;;;;13.10;9.65;;;;;;;;;;4869487;28;20660;-65
2021/09/29 05:51:19;;;;;;;15.55;11.25;;;;;;;;;;4875090;28;20184;-65
2021/09/29 05:53:45;;;;;;;16.17;10.97;;;;;;;;;;4872238;28;20471;-64
2021/09/29 05:56:10;;;;;;;15.40;10.63;;;;;;;;;;4874406;28;20568;-64
2021/09/29 05:58:36;;;;;;;15.75;10.88;;;;;;;;;;4875305;28;20272;-62
2021/09/29 06:01:01;;;;;;;15.90;10.15;;;;;;;;;;4873402;28;24116;-65
2021/09/29 06:03:26;;;;;;;16.65;10.85;;;;;;;;;;4872352;28;21643;-64
2021/09/29 06:05:51;;;;;;;13.97;10.37;;;;;;;;;;4867565;28;20044;-64
2021/09/29 06:08:17;;;;;;;14.65;9.90;;;;;;;;;;4873776;28;20331;-63
2021/09/29 06:10:43;;;;;;;15.43;12.10;;;;;;;;;;4870654;28;20030;-64
2021/09/29 06:13:08;;;;;;;16.88;11.35;;;;;;;;;;4869829;28;20037;-64
2021/09/29 06:15:34;;;;;;;17.77;10.75;;;;;;;;;;4869995;28;20034;-63
2021/09/29 06:18:03;;;;;;;17.00;9.77;;;;;;;;;;4874086;28;20117;-66
2021/09/29 06:20:31;;;;;;;13.43;8.97;;;;;;;;;;4871730;28;20575;-64
2021/09/29 06:22:57;;;;;;;13.90;10.20;;;;;;;;;;4873376;28;20257;-64
2021/09/29 06:25:22;;;;;;;14.02;8.85;;;;;;;;;;4873439;28;20780;-64
2021/09/29 06:27:48;;;;;;;12.00;8.68;;;;;;;;;;4872292;28;20496;-64
2021/09/29 06:30:14;;;;;;;14.63;8.75;;;;;;;;;;4872552;28;20088;-64
2021/09/29 06:32:39;;;;;;;18.17;9.27;;;;;;;;;;4872830;28;20806;-67
2021/09/29 06:35:05;;;;;;;14.07;8.43;;;;;;;;;;4872622;28;20030;-64
2021/09/29 06:37:31;;;;;;;14.82;8.65;;;;;;;;;;4866613;28;20048;-64
2021/09/29 06:39:57;;;;;;;14.00;8.40;;;;;;;;;;4872849;28;24320;-63
2021/09/29 06:42:22;;;;;;;12.30;8.20;;;;;;;;;;4868650;28;20042;-63
2021/09/29 06:44:47;;;;;;;12.83;7.83;;;;;;;;;;4869942;28;20034;-64
2021/09/29 06:47:12;;;;;;;11.03;7.00;;;;;;;;;;4870738;28;20030;-63
2021/09/29 06:49:38;;;;;;;12.17;7.77;;;;;;;;;;4872007;28;20265;-63
2021/09/29 06:52:04;;;;;;;10.40;6.85;;;;;;;;;;4871611;28;21293;-64
2021/09/29 06:54:29;;;;;;;10.55;6.28;;;;;;;;;;4866864;28;20092;-64
2021/09/29 06:56:54;;;;;;;10.25;6.95;;;;;;;;;;4868132;28;21003;-64
2021/09/29 06:59:20;;;;;;;8.32;4.70;;;;;;;;;;4873332;28;20380;-64
2021/09/29 07:01:46;;;;;;;7.30;4.27;;;;;;;;;;4868323;28;20041;-64
2021/09/29 07:04:12;;;;;;;8.70;4.55;;;;;;;;;;4875062;28;21300;-63
2021/09/29 07:06:37;;;;;;;7.93;4.30;;;;;;;;;;4868872;28;20184;-64
2021/09/29 07:09:02;;;;;;;6.70;3.70;;;;;;;;;;4871802;28;20658;-64
2021/09/29 07:11:28;;;;;;;6.63;3.83;;;;;;;;;;4870901;28;20384;-65
2021/09/29 07:13:53;;;;;;;11.35;4.40;;;;;;;;;;4868711;28;20048;-65
2021/09/29 07:16:19;;;;;;;7.18;3.97;;;;;;;;;;4870413;28;20040;-62
2021/09/29 07:18:44;;;;;;;6.40;3.85;;;;;;;;;;4873746;28;20562;-65
2021/09/29 07:21:10;;;;;;;6.93;3.67;;;;;;;;;;4885671;28;20429;-64
2021/09/29 07:23:37;;;;;;;7.95;3.85;;;;;;;;;;4872995;28;20577;-66
2021/09/29 07:26:02;;;;;;;6.25;3.70;;;;;;;;;;4868841;28;20026;-63
2021/09/29 07:28:27;;;;;;;7.13;3.60;;;;;;;;;;4873144;28;20310;-64
2021/09/29 07:30:54;;;;;;;5.30;3.20;;;;;;;;;;4870584;28;20361;-63
2021/09/29 07:33:19;;;;;;;6.45;3.47;;;;;;;;;;4872491;28;20272;-62
2021/09/29 07:35:45;;;;;;;5.53;3.13;;;;;;;;;;4872810;28;20034;-63
2021/09/29 07:38:10;;;;;;;5.68;3.25;;;;;;;;;;4870625;28;20026;-62
2021/09/29 07:40:36;;;;;;;7.35;3.35;;;;;;;;;;4873578;28;20479;-63
2021/09/29 07:43:02;;;;;;;5.35;2.78;;;;;;;;;;4873599;28;20808;-66
2021/09/29 07:45:28;;;;;;;6.45;3.47;;;;;;;;;;4871535;28;20308;-61
2021/09/29 07:47:53;;;;;;;7.80;3.38;;;;;;;;;;4866409;28;24066;-65
2021/09/29 07:50:19;;;;;;;5.72;3.15;;;;;;;;;;4873935;28;20302;-65
2021/09/29 07:52:45;;;;;;;6.20;3.47;;;;;;;;;;4867915;28;20045;-63
2021/09/29 07:55:12;;;;;;;7.05;3.47;;;;;;;;;;4867846;28;23781;-65
2021/09/29 07:57:38;;;;;;;7.63;3.38;;;;;;;;;;4867502;28;20052;-63
2021/09/29 08:00:04;;;;;;;6.45;3.60;;;;;;;;;;4867824;28;20763;-62
2021/09/29 08:02:29;;;;;;;8.57;3.40;;;;;;;;;;4866973;28;20069;-63
2021/09/29 08:04:56;;;;;;;5.80;3.27;;;;;;;;;;4871654;28;21005;-63
2021/09/29 08:07:21;;;;;;;4.97;2.70;;;;;;;;;;4871082;28;21034;-62
2021/09/29 08:09:47;;;;;;;5.65;3.10;;;;;;;;;;4868070;28;20030;-63
2021/09/29 08:12:12;;;;;;;5.60;2.88;;;;;;;;;;4870825;28;20143;-66
2021/09/29 08:14:39;;;;;;;5.13;2.47;;;;;;;;;;4870310;28;20032;-61
2021/09/29 08:17:05;;;;;;;5.38;2.85;;;;;;;;;;4871012;28;20109;-63
2021/09/29 08:19:30;;;;;;;6.25;2.83;;;;;;;;;;4871815;28;20599;-63
2021/09/29 08:21:55;;;;;;;6.20;2.70;;;;;;;;;;4866466;28;20046;-63
2021/09/29 08:24:26;;;;;;;5.32;2.83;;;;;;;;;;4870934;28;20380;-62
2021/09/29 08:26:59;;;;;;;5.78;2.63;;;;;;;;;;4868805;28;20054;-62
2021/09/29 08:29:37;;;;;;;7.10;3.00;;;;;;;;;;4870515;28;20025;-62
2021/09/29 08:37:07;;;;;;;7.15;3.05;;;;;;;;;;4869660;28;20992;-62
2021/09/29 08:39:40;;;;;;;5.88;2.63;;;;;;;;;;4882220;28;21672;-61
2021/09/29 08:42:17;;;;;;;5.70;2.80;;;;;;;;;;4863856;28;20705;-62
2021/09/29 08:47:24;;;;;;;5.05;2.65;;;;;;;;;;4869017;28;20750;-63
2021/09/29 08:50:54;;;;;;;5.82;3.13;;;;;;;;;;4871891;28;20128;-62
2021/09/29 08:55:35;;;;;;;6.07;3.20;;;;;;;;;;4867916;28;20649;-62
2021/09/29 09:17:28;;;;;;;5.20;2.50;;;;;;;;;;4870922;28;20036;-62
2021/09/29 09:19:53;;;;;;;5.15;2.78;;;;;;;;;;4869072;28;20062;-62
2021/09/29 09:22:19;;;;;;;5.55;3.05;;;;;;;;;;4866984;28;20493;-60
2021/09/29 09:24:52;;;;;;;5.40;2.58;;;;;;;;;;4871068;28;20062;-62
2021/09/29 09:27:18;;;;;;;4.78;2.35;;;;;;;;;;4872333;28;20100;-62
2021/09/29 09:29:44;;;;;;;6.05;2.55;;;;;;;;;;4871692;28;20034;-62
2021/09/29 09:32:11;;;;;;;4.72;2.35;;;;;;;;;;4872614;28;20497;-63
2021/09/29 09:34:37;;;;;;;4.93;2.17;;;;;;;;;;4870205;28;20025;-62
2021/09/29 09:37:02;;;;;;;5.32;2.40;;;;;;;;;;4871318;28;21321;-62
2021/09/29 09:39:28;;;;;;;5.88;2.28;;;;;;;;;;4864573;28;20399;-62
2021/09/29 09:41:56;;;;;;;5.05;2.45;;;;;;;;;;4870096;28;20120;-64
2021/09/29 09:44:26;;;;;;;5.40;2.25;;;;;;;;;;4870952;28;20092;-62
2021/09/29 09:47:04;;;;;;;5.55;2.30;;;;;;;;;;4868760;28;20132;-62
2021/09/29 09:49:30;;;;;;;6.32;2.50;;;;;;;;;;4869671;28;20500;-62
2021/09/29 09:52:02;;;;;;;5.32;2.33;;;;;;;;;;4868001;28;20340;-62
2021/09/29 09:54:37;;;;;;;4.70;2.40;;;;;;;;;;4868458;28;20551;-61
2021/09/29 09:57:07;;;;;;;5.65;2.40;;;;;;;;;;4873854;28;20061;-61
2021/09/29 09:59:33;;;;;;;5.18;2.38;;;;;;;;;;4873076;28;20374;-59
2021/09/29 10:01:58;;;;;;;4.78;2.58;;;;;;;;;;4871812;28;23575;-60
2021/09/29 10:04:23;;;;;;;5.70;2.58;;;;;;;;;;4874538;28;20879;-63
2021/09/29 10:06:49;;;;;;;5.03;2.50;;;;;;;;;;4870080;28;21568;-63
2021/09/29 10:10:22;;;;;;;4.22;2.08;;;;;;;;;;4872431;28;23829;-62
2021/09/29 10:26:20;;;;;;;4.55;2.22;;;;;;;;;;4867169;28;20033;-62
2021/09/29 10:28:46;;;;;;;4.43;2.20;;;;;;;;;;4869229;28;20081;-62
2021/09/29 10:33:43;;;;;;;5.03;2.35;;;;;;;;;;4871895;28;20037;-62
2021/09/29 10:41:08;;;;;;;7.00;2.60;;;;;;;;;;4873581;28;24396;-63
2021/09/29 10:46:16;;;;;;;4.88;2.25;;;;;;;;;;4873058;28;20061;-62
2021/09/29 11:08:15;;;;;;;4.40;2.20;;;;;;;;;;4873238;28;20034;-62
2021/09/29 11:27:42;;;;;;;6.57;2.13;;;;;;;;;;4855977;28;20528;-62
2021/09/29 11:30:34;;;;;;;5.15;2.30;;;;;;;;;;4871831;28;20104;-63
2021/09/29 11:33:06;;;;;;;5.03;2.45;;;;;;;;;;4867009;28;20116;-61
2021/09/29 11:39:16;;;;;;;4.68;2.55;;;;;;;;;;4872222;28;20036;-58
2021/09/29 12:08:36;;;;;;;5.43;2.63;;;;;;;;;;4871684;28;20226;-57
2021/09/29 12:11:09;;;;;;;5.05;2.47;;;;;;;;;;4862518;28;20634;-59
2021/09/29 12:13:38;;;;;;;4.70;2.63;;;;;;;;;;4871388;28;20033;-57
2021/09/29 12:16:03;;;;;;;4.63;2.60;;;;;;;;;;4872128;28;20060;-57
2021/09/29 12:18:29;;;;;;;5.65;2.85;;;;;;;;;;4869777;28;20301;-58
2021/09/29 12:20:54;;;;;;;5.00;2.60;;;;;;;;;;4870808;28;20042;-58
2021/09/29 12:23:21;;;;;;;5.27;2.83;;;;;;;;;;4872490;28;20034;-56
2021/09/29 12:25:52;;;;;;;6.65;2.83;;;;;;;;;;4868930;28;20335;-58
2021/09/29 12:34:13;;;;;;;5.35;2.80;;;;;;;;;;4869004;28;20480;-58
2021/09/29 12:36:38;;;;;;;4.88;2.92;;;;;;;;;;4870582;28;20117;-57
2021/09/29 12:39:15;;;;;;;4.75;2.60;;;;;;;;;;4871447;28;20029;-56
2021/09/29 12:41:51;;;;;;;6.15;2.92;;;;;;;;;;4870347;28;20042;-57
2021/09/29 12:44:18;;;;;;;6.03;2.78;;;;;;;;;;4871190;28;20134;-57
2021/09/29 12:46:48;;;;;;;7.55;3.10;;;;;;;;;;4866578;28;20042;-58
2021/09/29 12:49:18;;;;;;;4.72;2.78;;;;;;;;;;4882112;28;20734;-58
2021/09/29 12:51:47;;;;;;;5.22;3.10;;;;;;;;;;4873699;28;20026;-57
2021/09/29 12:54:20;;;;;;;5.78;3.15;;;;;;;;;;4862947;28;20037;-57
2021/09/29 12:56:46;;;;;;;6.03;3.10;;;;;;;;;;4869855;28;20707;-58
2021/09/29 12:59:11;;;;;;;5.83;2.90;;;;;;;;;;4871792;28;20033;-57
2021/09/29 13:01:37;;;;;;;5.45;2.92;;;;;;;;;;4870933;28;20338;-56
2021/09/29 13:04:02;;;;;;;5.53;3.28;;;;;;;;;;4863357;28;21105;-58
2021/09/29 13:06:28;;;;;;;5.25;2.75;;;;;;;;;;4872239;28;20533;-57
2021/09/29 13:08:53;;;;;;;5.17;2.90;;;;;;;;;;4872594;28;20749;-57
2021/09/29 13:11:18;;;;;;;6.60;3.10;;;;;;;;;;4873712;28;20275;-58
2021/09/29 13:13:44;;;;;;;6.97;3.53;;;;;;;;;;4874468;28;20303;-58
2021/09/29 13:16:09;;;;;;;7.43;3.20;;;;;;;;;;4871243;28;20046;-56
2021/09/29 13:18:58;;;;;;;5.38;3.10;;;;;;;;;;4872189;28;20715;-57
2021/09/29 13:21:42;;;;;;;5.80;3.15;;;;;;;;;;4872372;28;20034;-58
2021/09/29 13:24:25;;;;;;;5.63;2.83;;;;;;;;;;4872828;28;20029;-57
2021/09/29 13:37:33;;;;;;;5.55;3.28;;;;;;;;;;4870481;28;20644;-58
2021/09/29 13:39:59;;;;;;;6.63;3.13;;;;;;;;;;4868211;28;20668;-58
2021/09/29 13:42:24;;;;;;;6.67;3.20;;;;;;;;;;4869820;28;20038;-58
2021/09/29 13:44:49;;;;;;;7.68;3.17;;;;;;;;;;4872398;28;20037;-58
2021/09/29 13:47:14;;;;;;;5.77;3.30;;;;;;;;;;4869862;28;20026;-57
2021/09/29 13:49:40;;;;;;;5.30;3.08;;;;;;;;;;4874302;28;20681;-58
2021/09/29 13:52:07;;;;;;;6.23;3.43;;;;;;;;;;4871973;28;20034;-58
2021/09/29 13:54:33;;;;;;;5.85;3.22;;;;;;;;;;4868619;28;20388;-58
2021/09/29 14:29:33;;;;;;;6.55;3.20;;;;;;;;;;4889159;28;20972;-57
2021/09/29 14:34:24;;;;;;;5.40;2.80;;;;;;;;;;4889768;28;20630;-57
2021/09/29 14:36:50;;;;;;;5.72;3.45;;;;;;;;;;4892473;28;21192;-57
2021/09/29 14:39:15;;;;;;;5.93;2.90;;;;;;;;;;4893177;28;20555;-57
2021/09/29 14:41:40;;;;;;;5.55;2.85;;;;;;;;;;4894100;28;20288;-57
2021/09/29 14:44:06;;;;;;;6.85;3.05;;;;;;;;;;4893376;28;20697;-57
2021/09/29 14:46:32;;;;;;;7.05;3.53;;;;;;;;;;4888271;28;20574;-57
2021/09/29 14:48:57;;;;;;;6.68;3.35;;;;;;;;;;4892782;28;20103;-58
2021/09/29 14:51:22;;;;;;;5.95;3.30;;;;;;;;;;4893268;28;20052;-56
2021/09/29 14:53:49;;;;;;;6.10;3.40;;;;;;;;;;4894485;28;20645;-57
2021/09/29 14:56:16;;;;;;;6.30;3.50;;;;;;;;;;4892041;28;20223;-58
2021/09/29 14:58:42;;;;;;;6.00;3.70;;;;;;;;;;4891899;28;20040;-57
2021/09/29 15:01:07;;;;;;;7.55;3.60;;;;;;;;;;4892951;28;20228;-58
2021/09/29 15:03:33;;;;;;;7.93;3.40;;;;;;;;;;4890336;28;21217;-59
2021/09/29 15:05:59;;;;;;;6.93;3.47;;;;;;;;;;4889444;28;24429;-58
2021/09/29 15:08:24;;;;;;;7.40;3.60;;;;;;;;;;4889225;28;20033;-59
2021/09/29 15:10:49;;;;;;;6.40;3.30;;;;;;;;;;4893291;28;20053;-59
2021/09/29 15:13:17;;;;;;;5.95;3.50;;;;;;;;;;4890201;28;20641;-59
2021/09/29 15:15:55;;;;;;;5.82;3.42;;;;;;;;;;4890749;28;20548;-59
2021/09/29 15:18:29;;;;;;;6.60;3.55;;;;;;;;;;4887753;28;20037;-58
2021/09/29 15:31:25;;;;;;;9.63;5.13;;;;;;;;;;4882230;28;20045;-58
2021/09/29 15:55:29;;;;;;;7.13;3.97;;;;;;;;;;4893138;28;20257;-56
2021/09/29 15:58:11;;;;;;;6.90;3.63;;;;;;;;;;4991558;28;20033;-56
2021/09/29 16:08:39;;;;;;;7.82;4.53;;;;;;;;;;4995967;28;20029;-56
2021/09/29 16:13:39;;;;;;;7.07;4.05;;;;;;;;;;4996092;28;20052;-57
2021/09/29 16:35:03;;;;;;;8.85;4.55;;;;;;;;;;4974849;28;20038;-56
2021/09/29 16:37:29;;;;;;;6.85;5.15;;;;;;;;;;4997386;28;20030;-57
2021/09/29 16:39:54;;;;;;;7.20;5.32;;;;;;;;;;5010178;28;20041;-57
2021/09/29 16:42:20;;;;;;;7.70;5.85;;;;;;;;;;4995571;28;20313;-56
2021/09/29 16:44:45;;;;;;;6.93;5.18;;;;;;;;;;5000176;28;20018;-57
2021/09/29 16:47:11;;;;;;;9.45;5.50;;;;;;;;;;4998189;28;20100;-57
2021/09/29 16:49:38;;;;;;;11.68;5.68;;;;;;;;;;4993624;28;20026;-57
2021/09/29 16:52:25;;;;;;;13.07;6.10;;;;;;;;;;4991077;28;20025;-57
2021/09/29 16:54:53;;;;;;;8.82;5.32;;;;;;;;;;4996190;28;20508;-57
2021/09/29 16:57:29;;;;;;;7.90;5.20;;;;;;;;;;4994993;28;20017;-57
2021/09/29 17:00:07;;;;;;;8.18;5.50;;;;;;;;;;5000635;28;20022;-56
2021/09/29 17:02:32;;;;;;;10.50;5.38;;;;;;;;;;5002188;28;20060;-56
2021/09/29 17:04:58;;;;;;;8.15;5.35;;;;;;;;;;5005183;28;20022;-57
2021/09/29 17:07:24;;;;;;;9.80;5.97;;;;;;;;;;5001618;28;20033;-56
2021/09/29 17:09:49;;;;;;;11.13;5.13;;;;;;;;;;5005124;28;20041;-57
2021/09/29 17:12:16;;;;;;;9.60;5.75;;;;;;;;;;5005149;28;20029;-56
2021/09/29 17:14:41;;;;;;;9.15;5.70;;;;;;;;;;5016120;28;20049;-56
2021/09/29 17:17:06;;;;;;;9.37;5.57;;;;;;;;;;5010702;28;20123;-57
2021/09/29 17:19:32;;;;;;;8.25;5.15;;;;;;;;;;5012937;28;20939;-57
2021/09/29 17:22:03;;;;;;;9.60;5.60;;;;;;;;;;5007113;28;20026;-57
2021/09/29 17:24:29;;;;;;;8.70;5.40;;;;;;;;;;5015105;28;20260;-56
2021/09/29 17:26:54;;;;;;;9.93;5.75;;;;;;;;;;5012206;28;20018;-57
2021/09/29 17:29:20;;;;;;;8.32;5.40;;;;;;;;;;5007831;28;20030;-56
2021/09/29 17:31:52;;;;;;;9.23;5.47;;;;;;;;;;5013041;28;20414;-56
2021/09/29 17:34:25;;;;;;;8.35;5.47;;;;;;;;;;5010506;28;20112;-56
2021/09/29 17:53:00;;;;;;;10.82;6.78;;;;;;;;;;5011058;28;20040;-57
2021/09/29 17:55:26;;;;;;;10.23;5.50;;;;;;;;;;4997331;28;20217;-57
2021/09/29 17:57:51;;;;;;;7.38;4.95;;;;;;;;;;5013490;28;20175;-57
2021/09/29 18:00:16;;;;;;;8.48;5.13;;;;;;;;;;4998432;28;20026;-57
2021/09/29 18:03:01;;;;;;;7.78;5.43;;;;;;;;;;5005374;28;20108;-57
2021/09/29 18:07:52;;;;;;;9.17;5.80;;;;;;;;;;4999046;28;20640;-57
2021/09/29 18:10:17;;;;;;;9.27;6.22;;;;;;;;;;4998055;28;20272;-57
2021/09/29 18:12:43;;;;;;;11.80;8.15;;;;;;;;;;4998286;28;20041;-57
2021/09/29 18:15:09;;;;;;;8.63;6.57;;;;;;;;;;5003908;28;20025;-57
2021/09/29 18:17:35;;;;;;;7.90;5.15;;;;;;;;;;5000124;28;20034;-57
2021/09/29 18:20:00;;;;;;;10.50;5.95;;;;;;;;;;5002497;28;20034;-57
2021/09/29 18:22:25;;;;;;;8.20;5.07;;;;;;;;;;5011548;28;20296;-57
2021/09/29 18:24:51;;;;;;;9.80;5.25;;;;;;;;;;4998652;28;20022;-56
2021/09/29 18:27:16;;;;;;;7.57;4.88;;;;;;;;;;5002963;28;20112;-57
2021/09/29 18:29:41;;;;;;;8.77;4.97;;;;;;;;;;5003007;28;20064;-57
2021/09/29 18:32:07;;;;;;;8.70;5.20;;;;;;;;;;5002962;28;20319;-58
2021/09/29 18:34:35;;;;;;;9.05;5.20;;;;;;;;;;4989728;28;20069;-57
2021/09/29 18:37:02;;;;;;;10.10;5.32;;;;;;;;;;5018420;28;20022;-57
2021/09/29 18:39:27;;;;;;;8.70;5.35;;;;;;;;;;5002242;28;20357;-57
2021/09/29 18:41:53;;;;;;;8.65;5.43;;;;;;;;;;4995705;28;20401;-56
2021/09/29 18:44:19;;;;;;;7.30;5.05;;;;;;;;;;5015587;28;20490;-57